Herk-de-Stad, Belgium
Current Conditions -  °F | °C
As of 3:25 PM on Friday 24 Oct 2014 (Local Time) from EBDT Reporting Station
Broken Clouds Broken Clouds  
Wind Chill: 55°   Ceiling: 4500
Heat Index: 55°   Visibility: 6mi
Dew Point: 48°   Wind: 9mph
Humidity: 77%   Direction: 180°S
Pressure: 30.06"   Gusts: NA
Location:  50.94°N, 5.17°E
Report Text: EBDT 241325Z 18008KT 9999 SCT021 BKN045 13/09 Q1018 WHT WHT
Loading
Personal Weather Stations






























Interactive Weather Map New forecast layout! Learn more

10-Day Weather Forecast

Advertisements
Track Severe Weather on mobile